createdAt,value
2023-05-09T00:00:39.763Z,101406.78
2023-05-09T00:05:41.771Z,101404.91
2023-05-09T00:10:43.278Z,101403.66
2023-05-09T00:15:44.856Z,101398.66
2023-05-09T00:20:46.439Z,101393.69
2023-05-09T00:25:48.088Z,101389.97
2023-05-09T00:30:49.584Z,101402.28
2023-05-09T00:35:51.249Z,101392.59
2023-05-09T00:40:52.747Z,101375.84
2023-05-09T00:45:54.280Z,101372.47
2023-05-09T00:50:56.385Z,101360.94
2023-05-09T00:55:57.906Z,101358.59
2023-05-09T01:01:01.734Z,101351.13
2023-05-09T01:06:06.949Z,101350.88
2023-05-09T01:11:13.497Z,101334.00
2023-05-09T01:16:29.732Z,101335.81
2023-05-09T01:21:32.282Z,101321.59
2023-05-09T01:26:36.732Z,101315.53
2023-05-09T01:31:39.832Z,101308.69
2023-05-09T01:36:41.417Z,101305.91
2023-05-09T01:41:42.917Z,101308.81
2023-05-09T01:46:44.603Z,101298.41
2023-05-09T01:51:46.232Z,101298.72
2023-05-09T01:56:47.722Z,101281.28
2023-05-09T02:01:49.298Z,101284.69
2023-05-09T02:06:51.250Z,101272.25
2023-05-09T02:11:52.801Z,101271.06
2023-05-09T02:16:54.414Z,101276.94
2023-05-09T02:21:55.997Z,101284.38
2023-05-09T02:26:57.483Z,101269.84
2023-05-09T02:31:59.107Z,101262.84
2023-05-09T02:37:01.050Z,101260.53
2023-05-09T02:42:06.906Z,101251.22
2023-05-09T02:47:08.474Z,101250.41
2023-05-09T02:52:10.995Z,101258.25
2023-05-09T02:57:12.492Z,101257.06
2023-05-09T03:02:13.991Z,101256.06
2023-05-09T03:07:15.480Z,101238.28
2023-05-09T03:12:16.965Z,101241.47
2023-05-09T03:17:21.313Z,101241.88
2023-05-09T03:22:22.927Z,101238.72
2023-05-09T03:27:26.151Z,101239.44
2023-05-09T03:32:27.796Z,101227.31
2023-05-09T03:37:29.948Z,101232.19
2023-05-09T03:42:31.446Z,101231.50
2023-05-09T03:47:33.002Z,101226.53
2023-05-09T03:52:34.530Z,101223.50
2023-05-09T03:57:36.072Z,101217.81
2023-05-09T04:02:37.662Z,101207.00
2023-05-09T04:07:39.278Z,101204.22
2023-05-09T04:12:40.863Z,101193.78
2023-05-09T04:17:42.478Z,101195.78
2023-05-09T04:22:46.095Z,101200.59
2023-05-09T04:27:48.387Z,101196.56
2023-05-09T04:32:49.913Z,101191.53
2023-05-09T04:37:51.819Z,101194.13
2023-05-09T04:42:53.522Z,101196.22
2023-05-09T04:47:55.077Z,101198.63
2023-05-09T04:52:56.569Z,101186.78
2023-05-09T04:57:58.066Z,101185.81
2023-05-09T05:02:59.599Z,101176.56
2023-05-09T05:08:01.149Z,101187.28
2023-05-09T05:13:02.727Z,101171.69
2023-05-09T05:18:04.300Z,101177.75
2023-05-09T05:23:05.850Z,101162.63
2023-05-09T05:28:07.379Z,101171.94
2023-05-09T05:33:08.904Z,101156.69
2023-05-09T05:38:10.406Z,101151.66
2023-05-09T05:43:11.902Z,101144.75
2023-05-09T05:48:13.385Z,101140.19
2023-05-09T05:53:14.880Z,101144.31
2023-05-09T05:58:16.382Z,101140.06
2023-05-09T06:03:18.801Z,101129.94
2023-05-09T06:08:20.401Z,101135.38
2023-05-09T06:13:22.019Z,101122.03
2023-05-09T06:18:23.595Z,101115.69
2023-05-09T06:23:25.368Z,101115.81
2023-05-09T06:28:27.031Z,101115.81
2023-05-09T06:33:28.546Z,101090.38
2023-05-09T06:38:30.051Z,101091.38
2023-05-09T06:43:31.557Z,101085.97
2023-05-09T06:48:33.048Z,101066.09
2023-05-09T06:53:34.539Z,101062.66
2023-05-09T06:58:36.304Z,101063.66
2023-05-09T07:03:37.841Z,101055.75
2023-05-09T07:08:39.482Z,101057.91
2023-05-09T07:13:40.998Z,101055.81
2023-05-09T07:18:42.476Z,101049.25
2023-05-09T07:23:44.004Z,101059.88
2023-05-09T07:28:45.491Z,101041.66
2023-05-09T07:33:47.088Z,101033.09
2023-05-09T07:38:50.509Z,101027.94
2023-05-09T07:43:52.120Z,101021.69
2023-05-09T07:48:53.661Z,101017.44
2023-05-09T07:53:56.603Z,101011.59
2023-05-09T07:58:58.123Z,100996.25
2023-05-09T08:03:59.739Z,100982.50
2023-05-09T08:09:01.311Z,100985.56
2023-05-09T08:14:02.861Z,100979.53
2023-05-09T08:19:04.478Z,100961.91
2023-05-09T08:24:08.011Z,100960.38
2023-05-09T08:29:09.502Z,100968.84
2023-05-09T08:34:10.994Z,100957.78
2023-05-09T08:39:12.496Z,100955.72
2023-05-09T08:44:14.013Z,100954.66
2023-05-09T08:49:15.777Z,100956.41
2023-05-09T08:54:17.275Z,100950.88
2023-05-09T08:59:19.338Z,100937.69
2023-05-09T09:04:20.933Z,100930.03
2023-05-09T09:09:22.450Z,100933.88
2023-05-09T09:14:27.511Z,100937.91
2023-05-09T09:19:30.280Z,100941.97
2023-05-09T09:24:32.303Z,100930.72
2023-05-09T09:29:33.963Z,100933.06
2023-05-09T09:34:35.495Z,100928.28
2023-05-09T09:39:36.991Z,100929.13
2023-05-09T09:44:38.631Z,100916.03
2023-05-09T09:49:45.276Z,100921.44
2023-05-09T09:54:47.641Z,100897.38
2023-05-09T09:59:58.280Z,100893.56
2023-05-09T10:05:08.816Z,100893.91
2023-05-09T10:10:10.334Z,100885.22
2023-05-09T10:15:11.848Z,100871.59
2023-05-09T10:20:13.843Z,100868.63
2023-05-09T10:25:22.202Z,100867.78
2023-05-09T10:30:28.314Z,100863.09
2023-05-09T10:35:33.830Z,100861.56
2023-05-09T10:40:35.460Z,100847.78
2023-05-09T10:45:37.074Z,100839.19
2023-05-09T10:50:40.275Z,100837.59
2023-05-09T10:55:57.394Z,100833.97
2023-05-09T11:00:59.941Z,100827.13
2023-05-09T11:06:01.437Z,100825.34
2023-05-09T11:11:06.744Z,100827.53
2023-05-09T11:16:08.974Z,100818.81
2023-05-09T11:21:10.496Z,100814.59
2023-05-09T11:26:12.288Z,100807.25
2023-05-09T11:31:15.151Z,100803.50
2023-05-09T11:36:30.150Z,100791.81
2023-05-09T11:41:31.829Z,100780.28
2023-05-09T11:46:33.387Z,100776.94
2023-05-09T11:51:38.181Z,100772.84
2023-05-09T11:56:40.404Z,100763.13
2023-05-09T12:01:42.702Z,100752.50
2023-05-09T12:06:47.583Z,100750.19
2023-05-09T12:11:50.118Z,100742.25
2023-05-09T12:16:51.827Z,100740.56
2023-05-09T12:22:03.733Z,100735.66
2023-05-09T12:27:05.416Z,100719.84
2023-05-09T12:32:06.955Z,100726.38
2023-05-09T12:37:18.151Z,100705.13
2023-05-09T12:42:19.657Z,100700.56
2023-05-09T12:47:21.194Z,100692.53
2023-05-09T12:52:22.868Z,100691.03
2023-05-09T12:57:25.305Z,100702.75
2023-05-09T13:02:27.790Z,100677.47
2023-05-09T13:07:29.342Z,100671.00
2023-05-09T13:12:30.836Z,100667.81
2023-05-09T13:17:32.363Z,100664.38
2023-05-09T13:22:34.068Z,100657.19
2023-05-09T13:27:35.785Z,100664.13
2023-05-09T13:32:37.408Z,100660.97
2023-05-09T13:37:38.947Z,100664.13
2023-05-09T13:42:40.915Z,100691.00
2023-05-09T13:47:42.420Z,100681.69
2023-05-09T13:52:44.396Z,100680.88
2023-05-09T13:57:45.886Z,100677.59
2023-05-09T14:02:47.397Z,100670.91
2023-05-09T14:07:48.963Z,100661.31
2023-05-09T14:12:50.499Z,100653.00
2023-05-09T14:17:52.028Z,100651.56
2023-05-09T14:22:55.160Z,100637.03
2023-05-09T14:27:56.692Z,100620.44
2023-05-09T14:32:58.251Z,100617.97
2023-05-09T14:38:00.945Z,100613.59
2023-05-09T14:43:02.626Z,100612.84
2023-05-09T14:48:04.370Z,100602.88
2023-05-09T14:53:05.981Z,100591.97
2023-05-09T14:58:07.776Z,100584.94
2023-05-09T15:03:10.012Z,100589.38
2023-05-09T15:08:11.587Z,100559.19
2023-05-09T15:13:13.168Z,100564.78
2023-05-09T15:18:16.594Z,100565.25
2023-05-09T15:23:18.203Z,100565.00
2023-05-09T15:28:19.711Z,100547.59
2023-05-09T15:33:21.313Z,100532.81
2023-05-09T15:38:22.820Z,100525.41
2023-05-09T15:43:24.420Z,100522.56
2023-05-09T15:48:25.937Z,100522.31
2023-05-09T15:53:28.314Z,100518.97
2023-05-09T15:58:30.070Z,100509.41
2023-05-09T16:03:31.897Z,100510.00
2023-05-09T16:08:33.552Z,100522.56
2023-05-09T16:13:36.053Z,100530.09
2023-05-09T16:18:38.039Z,100518.75
2023-05-09T16:23:39.578Z,100518.03
2023-05-09T16:28:41.129Z,100505.34
2023-05-09T16:33:42.780Z,100507.50
2023-05-09T16:38:44.282Z,100520.06
2023-05-09T16:43:45.946Z,100537.72
2023-05-09T16:48:47.450Z,100538.09
2023-05-09T16:53:48.945Z,100492.00
2023-05-09T16:58:51.639Z,100486.44
2023-05-09T17:03:53.315Z,100482.81
2023-05-09T17:08:54.851Z,100499.75
2023-05-09T17:13:56.381Z,100514.13
2023-05-09T17:18:57.885Z,100508.88
2023-05-09T17:23:59.378Z,100533.75
2023-05-09T17:29:00.918Z,100525.50
2023-05-09T17:34:04.085Z,100514.88
2023-05-09T17:39:05.606Z,100497.56
2023-05-09T17:44:07.097Z,100503.66
2023-05-09T17:49:10.197Z,100502.72
2023-05-09T17:54:12.959Z,100492.44
2023-05-09T17:59:14.483Z,100484.25
2023-05-09T18:04:15.985Z,100468.69
2023-05-09T18:09:17.517Z,100471.44
2023-05-09T18:14:19.081Z,100491.63
2023-05-09T18:19:20.731Z,100488.81
2023-05-09T18:24:23.195Z,100487.47
2023-05-09T18:29:24.798Z,100501.50
2023-05-09T18:34:28.081Z,100496.56
2023-05-09T18:39:29.626Z,100481.75
2023-05-09T18:44:31.123Z,100474.84
2023-05-09T18:49:32.617Z,100456.34
2023-05-09T18:54:35.595Z,100456.13
2023-05-09T18:59:37.531Z,100446.81
2023-05-09T19:04:39.232Z,100443.00
2023-05-09T19:09:41.101Z,100448.97
2023-05-09T19:14:43.356Z,100456.97
2023-05-09T19:19:44.833Z,100461.84
2023-05-09T19:24:46.335Z,100465.38
2023-05-09T19:29:49.724Z,100482.38
2023-05-09T19:34:51.968Z,100477.13
2023-05-09T19:39:53.468Z,100478.88
2023-05-09T19:44:55.033Z,100474.63
2023-05-09T19:49:56.553Z,100471.47
2023-05-09T19:54:58.076Z,100472.13
2023-05-09T19:59:59.574Z,100467.22
2023-05-09T20:05:01.082Z,100475.88
2023-05-09T20:10:02.619Z,100479.41
2023-05-09T20:15:06.449Z,100477.53
2023-05-09T20:20:08.260Z,100486.34
2023-05-09T20:25:10.089Z,100472.94
2023-05-09T20:30:11.885Z,100452.19
2023-05-09T20:35:13.384Z,100446.50
2023-05-09T20:40:15.168Z,100434.78
2023-05-09T20:45:17.064Z,100436.03
2023-05-09T20:50:18.781Z,100433.78
2023-05-09T20:55:20.622Z,100436.66
2023-05-09T21:00:22.167Z,100422.72
2023-05-09T21:05:23.689Z,100413.50
2023-05-09T21:10:25.910Z,100402.53
2023-05-09T21:15:27.429Z,100401.81
2023-05-09T21:20:28.917Z,100407.91
2023-05-09T21:25:30.440Z,100401.78
2023-05-09T21:30:31.935Z,100398.03
2023-05-09T21:35:33.457Z,100392.72
2023-05-09T21:40:34.986Z,100391.91
2023-05-09T21:45:36.484Z,100401.06
2023-05-09T21:50:37.983Z,100374.00
2023-05-09T21:55:39.499Z,100382.91
2023-05-09T22:00:40.987Z,100374.72
2023-05-09T22:05:42.482Z,100374.84
2023-05-09T22:10:43.978Z,100389.72
2023-05-09T22:15:45.461Z,100380.19
2023-05-09T22:20:46.965Z,100377.34
2023-05-09T22:25:48.462Z,100368.78
2023-05-09T22:30:49.963Z,100368.03
2023-05-09T22:35:51.460Z,100366.44
2023-05-09T22:40:52.947Z,100346.91
2023-05-09T22:45:54.459Z,100353.19
2023-05-09T22:50:55.964Z,100337.13
2023-05-09T22:55:57.800Z,100337.34
2023-05-09T23:00:59.345Z,100332.22
2023-05-09T23:06:01.185Z,100341.13
2023-05-09T23:11:02.894Z,100333.91
2023-05-09T23:16:04.562Z,100332.84
2023-05-09T23:21:06.076Z,100333.22
2023-05-09T23:26:07.575Z,100324.72
2023-05-09T23:31:10.076Z,100319.31
2023-05-09T23:36:11.457Z,100322.06
2023-05-09T23:41:13.011Z,100317.84
2023-05-09T23:46:14.545Z,100317.63
2023-05-09T23:51:16.280Z,100311.63
2023-05-09T23:56:17.791Z,100305.22
